sensor_id;sensor_type;location;lat;lon;timestamp;P1;durP1;ratioP1;P2;durP2;ratioP2
26335;SDS011;14047;50.936;4.654;2023-02-22T00:00:16;271.42;;;38.88;;
26335;SDS011;14047;50.936;4.654;2023-02-22T00:02:47;155.35;;;37.20;;
26335;SDS011;14047;50.936;4.654;2023-02-22T00:05:17;327.40;;;41.72;;
26335;SDS011;14047;50.936;4.654;2023-02-22T00:07:49;199.13;;;38.78;;
26335;SDS011;14047;50.936;4.654;2023-02-22T00:10:15;183.80;;;36.15;;
26335;SDS011;14047;50.936;4.654;2023-02-22T00:12:47;178.30;;;37.05;;
26335;SDS011;14047;50.936;4.654;2023-02-22T00:15:15;396.27;;;44.80;;
26335;SDS011;14047;50.936;4.654;2023-02-22T00:17:45;334.33;;;44.47;;
26335;SDS011;14047;50.936;4.654;2023-02-22T00:20:11;377.92;;;44.28;;
26335;SDS011;14047;50.936;4.654;2023-02-22T00:22:39;153.77;;;35.60;;
26335;SDS011;14047;50.936;4.654;2023-02-22T00:25:07;164.15;;;35.75;;
26335;SDS011;14047;50.936;4.654;2023-02-22T00:27:33;235.25;;;37.85;;
26335;SDS011;14047;50.936;4.654;2023-02-22T00:30:01;157.95;;;35.50;;
26335;SDS011;14047;50.936;4.654;2023-02-22T00:32:30;473.58;;;45.53;;
26335;SDS011;14047;50.936;4.654;2023-02-22T00:34:56;149.68;;;34.92;;
26335;SDS011;14047;50.936;4.654;2023-02-22T00:37:23;227.13;;;37.42;;
26335;SDS011;14047;50.936;4.654;2023-02-22T00:39:49;196.93;;;38.10;;
26335;SDS011;14047;50.936;4.654;2023-02-22T00:42:16;128.60;;;34.97;;
26335;SDS011;14047;50.936;4.654;2023-02-22T00:44:43;360.60;;;38.55;;
26335;SDS011;14047;50.936;4.654;2023-02-22T00:47:11;139.27;;;35.53;;
26335;SDS011;14047;50.936;4.654;2023-02-22T00:49:37;416.73;;;48.97;;
26335;SDS011;14047;50.936;4.654;2023-02-22T00:52:03;243.70;;;38.05;;
26335;SDS011;14047;50.936;4.654;2023-02-22T00:54:29;211.35;;;36.33;;
26335;SDS011;14047;50.936;4.654;2023-02-22T00:56:56;306.42;;;42.30;;
26335;SDS011;14047;50.936;4.654;2023-02-22T00:59:23;223.15;;;35.55;;
26335;SDS011;14047;50.936;4.654;2023-02-22T01:01:49;279.67;;;37.75;;
26335;SDS011;14047;50.936;4.654;2023-02-22T01:04:14;203.55;;;33.17;;
26335;SDS011;14047;50.936;4.654;2023-02-22T01:06:42;218.40;;;36.75;;
26335;SDS011;14047;50.936;4.654;2023-02-22T01:09:08;398.13;;;43.70;;
26335;SDS011;14047;50.936;4.654;2023-02-22T01:11:34;297.45;;;38.80;;
26335;SDS011;14047;50.936;4.654;2023-02-22T01:14:00;343.40;;;42.10;;
26335;SDS011;14047;50.936;4.654;2023-02-22T01:16:26;285.60;;;37.15;;
26335;SDS011;14047;50.936;4.654;2023-02-22T01:18:52;206.27;;;33.80;;
26335;SDS011;14047;50.936;4.654;2023-02-22T01:21:18;249.82;;;37.97;;
26335;SDS011;14047;50.936;4.654;2023-02-22T01:23:44;268.02;;;37.97;;
26335;SDS011;14047;50.936;4.654;2023-02-22T01:26:10;181.13;;;33.08;;
26335;SDS011;14047;50.936;4.654;2023-02-22T01:28:36;211.73;;;33.55;;
26335;SDS011;14047;50.936;4.654;2023-02-22T01:31:03;249.32;;;35.60;;
26335;SDS011;14047;50.936;4.654;2023-02-22T01:33:29;342.30;;;40.30;;
26335;SDS011;14047;50.936;4.654;2023-02-22T01:35:55;317.50;;;40.42;;
26335;SDS011;14047;50.936;4.654;2023-02-22T01:38:21;190.05;;;34.03;;
26335;SDS011;14047;50.936;4.654;2023-02-22T01:40:48;267.48;;;34.95;;
26335;SDS011;14047;50.936;4.654;2023-02-22T01:43:21;144.68;;;31.85;;
26335;SDS011;14047;50.936;4.654;2023-02-22T01:45:49;394.92;;;45.85;;
26335;SDS011;14047;50.936;4.654;2023-02-22T01:48:29;379.50;;;40.65;;
26335;SDS011;14047;50.936;4.654;2023-02-22T01:53:58;213.27;;;34.45;;
26335;SDS011;14047;50.936;4.654;2023-02-22T01:56:31;104.53;;;28.38;;
26335;SDS011;14047;50.936;4.654;2023-02-22T01:59:02;234.50;;;35.00;;
26335;SDS011;14047;50.936;4.654;2023-02-22T02:01:32;173.77;;;32.58;;
26335;SDS011;14047;50.936;4.654;2023-02-22T02:04:00;181.88;;;33.42;;
26335;SDS011;14047;50.936;4.654;2023-02-22T02:06:30;255.07;;;37.42;;
26335;SDS011;14047;50.936;4.654;2023-02-22T02:09:11;138.35;;;30.75;;
26335;SDS011;14047;50.936;4.654;2023-02-22T02:11:44;204.50;;;32.17;;
26335;SDS011;14047;50.936;4.654;2023-02-22T02:14:11;129.43;;;27.83;;
26335;SDS011;14047;50.936;4.654;2023-02-22T02:16:45;130.25;;;27.98;;
26335;SDS011;14047;50.936;4.654;2023-02-22T02:19:19;92.82;;;27.75;;
26335;SDS011;14047;50.936;4.654;2023-02-22T02:24:44;137.95;;;26.52;;
26335;SDS011;14047;50.936;4.654;2023-02-22T02:30:03;122.57;;;24.23;;
26335;SDS011;14047;50.936;4.654;2023-02-22T02:32:52;105.90;;;23.75;;
26335;SDS011;14047;50.936;4.654;2023-02-22T02:35:37;83.65;;;23.13;;
26335;SDS011;14047;50.936;4.654;2023-02-22T02:46:29;85.50;;;25.20;;
26335;SDS011;14047;50.936;4.654;2023-02-22T02:49:00;71.22;;;22.95;;
26335;SDS011;14047;50.936;4.654;2023-02-22T02:51:33;74.88;;;21.17;;
26335;SDS011;14047;50.936;4.654;2023-02-22T02:54:03;57.47;;;21.65;;
26335;SDS011;14047;50.936;4.654;2023-02-22T02:56:30;68.55;;;21.77;;
26335;SDS011;14047;50.936;4.654;2023-02-22T02:58:56;61.30;;;21.08;;
26335;SDS011;14047;50.936;4.654;2023-02-22T03:03:58;43.28;;;18.90;;
26335;SDS011;14047;50.936;4.654;2023-02-22T03:09:40;48.40;;;19.85;;
26335;SDS011;14047;50.936;4.654;2023-02-22T03:12:16;64.95;;;20.30;;
26335;SDS011;14047;50.936;4.654;2023-02-22T03:18:33;76.78;;;20.27;;
26335;SDS011;14047;50.936;4.654;2023-02-22T03:24:13;58.15;;;19.63;;
26335;SDS011;14047;50.936;4.654;2023-02-22T03:29:37;53.78;;;19.65;;
26335;SDS011;14047;50.936;4.654;2023-02-22T03:32:11;43.28;;;19.60;;
26335;SDS011;14047;50.936;4.654;2023-02-22T03:34:49;47.67;;;18.63;;
26335;SDS011;14047;50.936;4.654;2023-02-22T03:37:24;66.00;;;19.55;;
26335;SDS011;14047;50.936;4.654;2023-02-22T03:39:53;44.03;;;19.70;;
26335;SDS011;14047;50.936;4.654;2023-02-22T03:42:25;46.72;;;20.75;;
26335;SDS011;14047;50.936;4.654;2023-02-22T03:44:57;60.90;;;19.65;;
26335;SDS011;14047;50.936;4.654;2023-02-22T03:47:33;39.15;;;19.10;;
26335;SDS011;14047;50.936;4.654;2023-02-22T03:50:06;46.50;;;20.58;;
26335;SDS011;14047;50.936;4.654;2023-02-22T03:52:35;56.20;;;21.02;;
26335;SDS011;14047;50.936;4.654;2023-02-22T03:55:05;61.10;;;20.70;;
26335;SDS011;14047;50.936;4.654;2023-02-22T03:57:57;44.08;;;19.77;;
26335;SDS011;14047;50.936;4.654;2023-02-22T04:00:26;42.45;;;19.35;;
26335;SDS011;14047;50.936;4.654;2023-02-22T04:02:54;46.25;;;19.75;;
26335;SDS011;14047;50.936;4.654;2023-02-22T04:05:22;39.45;;;19.55;;
26335;SDS011;14047;50.936;4.654;2023-02-22T04:07:53;38.35;;;18.33;;
26335;SDS011;14047;50.936;4.654;2023-02-22T04:10:20;40.40;;;19.77;;
26335;SDS011;14047;50.936;4.654;2023-02-22T04:12:47;46.17;;;19.35;;
26335;SDS011;14047;50.936;4.654;2023-02-22T04:15:16;37.55;;;19.40;;
26335;SDS011;14047;50.936;4.654;2023-02-22T04:17:45;38.72;;;20.23;;
26335;SDS011;14047;50.936;4.654;2023-02-22T04:20:13;43.30;;;19.25;;
26335;SDS011;14047;50.936;4.654;2023-02-22T04:22:52;45.72;;;19.10;;
26335;SDS011;14047;50.936;4.654;2023-02-22T04:25:19;44.13;;;20.42;;
26335;SDS011;14047;50.936;4.654;2023-02-22T04:27:47;43.13;;;19.83;;
26335;SDS011;14047;50.936;4.654;2023-02-22T04:30:16;42.03;;;19.40;;
26335;SDS011;14047;50.936;4.654;2023-02-22T04:32:43;43.05;;;20.30;;
26335;SDS011;14047;50.936;4.654;2023-02-22T04:35:10;59.30;;;19.85;;
26335;SDS011;14047;50.936;4.654;2023-02-22T04:37:36;38.60;;;18.80;;
26335;SDS011;14047;50.936;4.654;2023-02-22T04:40:05;137.43;;;22.15;;
26335;SDS011;14047;50.936;4.654;2023-02-22T04:42:33;42.22;;;19.17;;
26335;SDS011;14047;50.936;4.654;2023-02-22T04:45:01;42.33;;;20.48;;
26335;SDS011;14047;50.936;4.654;2023-02-22T04:47:28;43.97;;;19.73;;
26335;SDS011;14047;50.936;4.654;2023-02-22T04:49:54;38.97;;;18.90;;
26335;SDS011;14047;50.936;4.654;2023-02-22T04:52:20;44.40;;;19.25;;
26335;SDS011;14047;50.936;4.654;2023-02-22T04:54:46;42.40;;;18.73;;
26335;SDS011;14047;50.936;4.654;2023-02-22T04:57:13;40.10;;;18.60;;
26335;SDS011;14047;50.936;4.654;2023-02-22T04:59:39;34.97;;;18.02;;
26335;SDS011;14047;50.936;4.654;2023-02-22T05:02:05;46.72;;;19.20;;
26335;SDS011;14047;50.936;4.654;2023-02-22T05:04:31;41.13;;;18.88;;
26335;SDS011;14047;50.936;4.654;2023-02-22T05:06:57;39.60;;;18.08;;
26335;SDS011;14047;50.936;4.654;2023-02-22T05:09:23;40.28;;;19.10;;
26335;SDS011;14047;50.936;4.654;2023-02-22T05:11:49;35.40;;;17.95;;
26335;SDS011;14047;50.936;4.654;2023-02-22T05:14:15;31.65;;;17.30;;
26335;SDS011;14047;50.936;4.654;2023-02-22T05:16:41;45.55;;;18.90;;
26335;SDS011;14047;50.936;4.654;2023-02-22T05:19:07;44.00;;;19.10;;
26335;SDS011;14047;50.936;4.654;2023-02-22T05:21:33;35.65;;;17.58;;
26335;SDS011;14047;50.936;4.654;2023-02-22T05:23:58;38.75;;;18.60;;
26335;SDS011;14047;50.936;4.654;2023-02-22T05:26:24;39.45;;;19.40;;
26335;SDS011;14047;50.936;4.654;2023-02-22T05:28:50;32.42;;;17.27;;
26335;SDS011;14047;50.936;4.654;2023-02-22T05:31:16;35.72;;;17.80;;
26335;SDS011;14047;50.936;4.654;2023-02-22T05:33:42;57.72;;;19.00;;
26335;SDS011;14047;50.936;4.654;2023-02-22T05:36:08;44.25;;;17.92;;
26335;SDS011;14047;50.936;4.654;2023-02-22T05:38:35;35.95;;;17.30;;
26335;SDS011;14047;50.936;4.654;2023-02-22T05:41:08;31.48;;;16.50;;
26335;SDS011;14047;50.936;4.654;2023-02-22T05:43:35;29.13;;;17.00;;
26335;SDS011;14047;50.936;4.654;2023-02-22T05:46:02;39.03;;;17.83;;
26335;SDS011;14047;50.936;4.654;2023-02-22T05:48:28;30.50;;;15.77;;
26335;SDS011;14047;50.936;4.654;2023-02-22T05:50:55;29.27;;;15.98;;
26335;SDS011;14047;50.936;4.654;2023-02-22T05:53:22;62.45;;;17.48;;
26335;SDS011;14047;50.936;4.654;2023-02-22T05:55:51;32.55;;;16.45;;
26335;SDS011;14047;50.936;4.654;2023-02-22T05:58:17;67.45;;;18.60;;
26335;SDS011;14047;50.936;4.654;2023-02-22T06:00:43;34.30;;;16.05;;
26335;SDS011;14047;50.936;4.654;2023-02-22T06:03:09;33.60;;;16.38;;
26335;SDS011;14047;50.936;4.654;2023-02-22T06:05:38;29.45;;;15.55;;
26335;SDS011;14047;50.936;4.654;2023-02-22T06:08:05;29.90;;;15.60;;
26335;SDS011;14047;50.936;4.654;2023-02-22T06:10:32;27.13;;;13.93;;
26335;SDS011;14047;50.936;4.654;2023-02-22T06:12:59;27.02;;;14.80;;
26335;SDS011;14047;50.936;4.654;2023-02-22T06:15:26;31.80;;;15.73;;
26335;SDS011;14047;50.936;4.654;2023-02-22T06:17:53;27.77;;;15.38;;
26335;SDS011;14047;50.936;4.654;2023-02-22T06:20:21;27.20;;;15.15;;
26335;SDS011;14047;50.936;4.654;2023-02-22T06:22:49;28.88;;;15.63;;
26335;SDS011;14047;50.936;4.654;2023-02-22T06:25:17;35.55;;;15.35;;
26335;SDS011;14047;50.936;4.654;2023-02-22T06:27:45;26.67;;;14.15;;
26335;SDS011;14047;50.936;4.654;2023-02-22T06:30:11;29.10;;;15.10;;
26335;SDS011;14047;50.936;4.654;2023-02-22T06:32:39;27.02;;;14.32;;
26335;SDS011;14047;50.936;4.654;2023-02-22T06:35:05;24.73;;;14.25;;
26335;SDS011;14047;50.936;4.654;2023-02-22T06:37:32;26.95;;;14.85;;
26335;SDS011;14047;50.936;4.654;2023-02-22T06:39:58;28.15;;;15.07;;
26335;SDS011;14047;50.936;4.654;2023-02-22T06:42:23;24.30;;;13.98;;
26335;SDS011;14047;50.936;4.654;2023-02-22T06:44:49;25.45;;;13.30;;
26335;SDS011;14047;50.936;4.654;2023-02-22T06:47:15;26.92;;;14.00;;
26335;SDS011;14047;50.936;4.654;2023-02-22T06:49:41;27.05;;;14.38;;
26335;SDS011;14047;50.936;4.654;2023-02-22T06:52:07;23.55;;;14.30;;
26335;SDS011;14047;50.936;4.654;2023-02-22T06:54:34;28.08;;;14.00;;
26335;SDS011;14047;50.936;4.654;2023-02-22T06:57:01;22.92;;;13.20;;
26335;SDS011;14047;50.936;4.654;2023-02-22T06:59:27;25.52;;;13.65;;
26335;SDS011;14047;50.936;4.654;2023-02-22T07:01:53;26.25;;;14.38;;
26335;SDS011;14047;50.936;4.654;2023-02-22T07:04:19;24.42;;;14.20;;
26335;SDS011;14047;50.936;4.654;2023-02-22T07:06:45;29.25;;;13.88;;
26335;SDS011;14047;50.936;4.654;2023-02-22T07:09:13;24.05;;;13.68;;
26335;SDS011;14047;50.936;4.654;2023-02-22T07:11:40;21.35;;;12.25;;
26335;SDS011;14047;50.936;4.654;2023-02-22T07:14:06;21.02;;;12.73;;
26335;SDS011;14047;50.936;4.654;2023-02-22T07:16:33;21.40;;;12.82;;
26335;SDS011;14047;50.936;4.654;2023-02-22T07:18:59;25.63;;;13.48;;
26335;SDS011;14047;50.936;4.654;2023-02-22T07:21:25;22.00;;;12.85;;
26335;SDS011;14047;50.936;4.654;2023-02-22T07:23:52;24.48;;;13.10;;
26335;SDS011;14047;50.936;4.654;2023-02-22T07:26:19;20.65;;;12.18;;
26335;SDS011;14047;50.936;4.654;2023-02-22T07:28:46;20.85;;;12.75;;
26335;SDS011;14047;50.936;4.654;2023-02-22T07:31:13;24.40;;;12.80;;
26335;SDS011;14047;50.936;4.654;2023-02-22T07:33:39;21.98;;;12.80;;
26335;SDS011;14047;50.936;4.654;2023-02-22T07:36:05;21.77;;;12.48;;
26335;SDS011;14047;50.936;4.654;2023-02-22T07:38:31;22.63;;;12.52;;
26335;SDS011;14047;50.936;4.654;2023-02-22T07:40:57;22.67;;;12.43;;
26335;SDS011;14047;50.936;4.654;2023-02-22T07:43:24;21.15;;;12.40;;
26335;SDS011;14047;50.936;4.654;2023-02-22T07:45:53;20.63;;;13.02;;
26335;SDS011;14047;50.936;4.654;2023-02-22T07:48:23;29.08;;;13.43;;
26335;SDS011;14047;50.936;4.654;2023-02-22T07:50:51;19.65;;;12.82;;
26335;SDS011;14047;50.936;4.654;2023-02-22T07:53:18;20.80;;;12.52;;
26335;SDS011;14047;50.936;4.654;2023-02-22T07:55:45;24.10;;;13.45;;
26335;SDS011;14047;50.936;4.654;2023-02-22T07:58:16;27.63;;;13.10;;
26335;SDS011;14047;50.936;4.654;2023-02-22T08:00:45;21.70;;;12.77;;
26335;SDS011;14047;50.936;4.654;2023-02-22T08:03:15;19.77;;;12.88;;
26335;SDS011;14047;50.936;4.654;2023-02-22T08:05:46;19.88;;;12.60;;
26335;SDS011;14047;50.936;4.654;2023-02-22T08:08:14;19.90;;;12.60;;
26335;SDS011;14047;50.936;4.654;2023-02-22T08:10:41;25.30;;;13.63;;
26335;SDS011;14047;50.936;4.654;2023-02-22T08:13:07;21.98;;;13.00;;
26335;SDS011;14047;50.936;4.654;2023-02-22T08:15:34;23.77;;;12.80;;
26335;SDS011;14047;50.936;4.654;2023-02-22T08:18:04;19.88;;;12.30;;
26335;SDS011;14047;50.936;4.654;2023-02-22T08:20:35;21.55;;;11.93;;
26335;SDS011;14047;50.936;4.654;2023-02-22T08:23:02;16.52;;;11.65;;
26335;SDS011;14047;50.936;4.654;2023-02-22T08:25:29;23.48;;;11.50;;
26335;SDS011;14047;50.936;4.654;2023-02-22T08:36:05;17.73;;;10.55;;
26335;SDS011;14047;50.936;4.654;2023-02-22T08:43:00;18.73;;;10.98;;
26335;SDS011;14047;50.936;4.654;2023-02-22T08:45:36;17.58;;;11.00;;
26335;SDS011;14047;50.936;4.654;2023-02-22T08:48:02;22.42;;;11.55;;
26335;SDS011;14047;50.936;4.654;2023-02-22T08:50:29;15.05;;;10.57;;
26335;SDS011;14047;50.936;4.654;2023-02-22T08:52:58;17.25;;;10.45;;
26335;SDS011;14047;50.936;4.654;2023-02-22T08:55:29;19.10;;;9.93;;
26335;SDS011;14047;50.936;4.654;2023-02-22T09:17:28;19.50;;;9.73;;
26335;SDS011;14047;50.936;4.654;2023-02-22T09:19:54;21.52;;;10.15;;
26335;SDS011;14047;50.936;4.654;2023-02-22T09:22:20;16.70;;;9.02;;
26335;SDS011;14047;50.936;4.654;2023-02-22T09:24:46;21.02;;;10.18;;
26335;SDS011;14047;50.936;4.654;2023-02-22T09:27:12;15.38;;;9.73;;
26335;SDS011;14047;50.936;4.654;2023-02-22T09:29:39;14.77;;;8.85;;
26335;SDS011;14047;50.936;4.654;2023-02-22T09:32:05;19.58;;;9.02;;
26335;SDS011;14047;50.936;4.654;2023-02-22T09:34:31;17.10;;;9.70;;
26335;SDS011;14047;50.936;4.654;2023-02-22T09:36:59;15.95;;;9.52;;
26335;SDS011;14047;50.936;4.654;2023-02-22T09:39:25;18.85;;;10.38;;
26335;SDS011;14047;50.936;4.654;2023-02-22T09:44:48;22.77;;;10.38;;
26335;SDS011;14047;50.936;4.654;2023-02-22T09:47:22;18.60;;;11.15;;
26335;SDS011;14047;50.936;4.654;2023-02-22T09:50:02;20.38;;;11.32;;
26335;SDS011;14047;50.936;4.654;2023-02-22T09:52:53;18.38;;;10.70;;
26335;SDS011;14047;50.936;4.654;2023-02-22T09:55:25;17.65;;;9.25;;
26335;SDS011;14047;50.936;4.654;2023-02-22T09:58:05;17.67;;;10.15;;
26335;SDS011;14047;50.936;4.654;2023-02-22T10:01:21;15.68;;;10.02;;
26335;SDS011;14047;50.936;4.654;2023-02-22T10:03:59;26.45;;;11.38;;
26335;SDS011;14047;50.936;4.654;2023-02-22T10:09:36;22.80;;;11.30;;
26335;SDS011;14047;50.936;4.654;2023-02-22T10:12:10;17.42;;;11.57;;
26335;SDS011;14047;50.936;4.654;2023-02-22T10:25:38;19.63;;;11.45;;
26335;SDS011;14047;50.936;4.654;2023-02-22T10:28:20;22.63;;;11.93;;
26335;SDS011;14047;50.936;4.654;2023-02-22T10:31:11;20.40;;;11.10;;
26335;SDS011;14047;50.936;4.654;2023-02-22T10:33:46;18.00;;;11.13;;
26335;SDS011;14047;50.936;4.654;2023-02-22T10:36:15;21.15;;;11.60;;
26335;SDS011;14047;50.936;4.654;2023-02-22T10:38:50;23.70;;;11.60;;
26335;SDS011;14047;50.936;4.654;2023-02-22T10:41:28;19.58;;;11.80;;
26335;SDS011;14047;50.936;4.654;2023-02-22T10:43:56;19.42;;;11.65;;
26335;SDS011;14047;50.936;4.654;2023-02-22T10:46:23;18.23;;;11.00;;
26335;SDS011;14047;50.936;4.654;2023-02-22T10:48:53;22.17;;;11.23;;
26335;SDS011;14047;50.936;4.654;2023-02-22T10:51:26;24.23;;;12.43;;
26335;SDS011;14047;50.936;4.654;2023-02-22T10:56:45;19.30;;;10.98;;
26335;SDS011;14047;50.936;4.654;2023-02-22T10:59:24;22.83;;;11.60;;
26335;SDS011;14047;50.936;4.654;2023-02-22T11:04:47;19.65;;;11.40;;
26335;SDS011;14047;50.936;4.654;2023-02-22T11:07:20;16.25;;;11.05;;
26335;SDS011;14047;50.936;4.654;2023-02-22T11:09:57;22.52;;;11.65;;
26335;SDS011;14047;50.936;4.654;2023-02-22T11:12:35;25.13;;;11.48;;
26335;SDS011;14047;50.936;4.654;2023-02-22T11:17:50;20.95;;;12.15;;
26335;SDS011;14047;50.936;4.654;2023-02-22T11:20:24;21.05;;;11.95;;
26335;SDS011;14047;50.936;4.654;2023-02-22T11:22:59;19.45;;;10.68;;
26335;SDS011;14047;50.936;4.654;2023-02-22T11:25:31;19.65;;;11.88;;
26335;SDS011;14047;50.936;4.654;2023-02-22T11:30:58;19.15;;;11.20;;
26335;SDS011;14047;50.936;4.654;2023-02-22T11:33:38;17.85;;;11.07;;
26335;SDS011;14047;50.936;4.654;2023-02-22T11:36:28;21.88;;;12.50;;
26335;SDS011;14047;50.936;4.654;2023-02-22T11:38:55;21.83;;;12.32;;
26335;SDS011;14047;50.936;4.654;2023-02-22T11:41:28;20.17;;;11.88;;
26335;SDS011;14047;50.936;4.654;2023-02-22T11:44:11;23.92;;;13.15;;
26335;SDS011;14047;50.936;4.654;2023-02-22T11:46:38;21.00;;;11.75;;
26335;SDS011;14047;50.936;4.654;2023-02-22T11:49:10;20.50;;;12.02;;
26335;SDS011;14047;50.936;4.654;2023-02-22T11:55:02;21.23;;;12.55;;
26335;SDS011;14047;50.936;4.654;2023-02-22T12:00:25;23.58;;;13.30;;
26335;SDS011;14047;50.936;4.654;2023-02-22T12:06:27;21.42;;;12.68;;
26335;SDS011;14047;50.936;4.654;2023-02-22T12:09:37;19.27;;;12.43;;
26335;SDS011;14047;50.936;4.654;2023-02-22T12:12:20;23.10;;;13.75;;
26335;SDS011;14047;50.936;4.654;2023-02-22T12:15:00;21.55;;;13.95;;
26335;SDS011;14047;50.936;4.654;2023-02-22T12:17:31;20.75;;;13.43;;
26335;SDS011;14047;50.936;4.654;2023-02-22T12:20:25;19.35;;;13.55;;
26335;SDS011;14047;50.936;4.654;2023-02-22T12:22:58;24.13;;;14.15;;
26335;SDS011;14047;50.936;4.654;2023-02-22T12:25:34;23.75;;;14.32;;
26335;SDS011;14047;50.936;4.654;2023-02-22T12:30:50;24.52;;;13.35;;
26335;SDS011;14047;50.936;4.654;2023-02-22T12:33:26;28.17;;;15.55;;
26335;SDS011;14047;50.936;4.654;2023-02-22T12:35:55;23.42;;;14.85;;
26335;SDS011;14047;50.936;4.654;2023-02-22T12:43:50;30.33;;;21.15;;
26335;SDS011;14047;50.936;4.654;2023-02-22T12:46:41;36.50;;;21.98;;
26335;SDS011;14047;50.936;4.654;2023-02-22T12:49:13;35.88;;;22.33;;
26335;SDS011;14047;50.936;4.654;2023-02-22T13:00:15;39.22;;;23.92;;
26335;SDS011;14047;50.936;4.654;2023-02-22T13:03:49;38.22;;;24.35;;
26335;SDS011;14047;50.936;4.654;2023-02-22T13:20:35;32.45;;;23.00;;
26335;SDS011;14047;50.936;4.654;2023-02-22T13:25:27;38.13;;;23.08;;
26335;SDS011;14047;50.936;4.654;2023-02-22T13:28:15;36.85;;;23.52;;
26335;SDS011;14047;50.936;4.654;2023-02-22T13:36:18;34.35;;;22.27;;
26335;SDS011;14047;50.936;4.654;2023-02-22T13:42:07;38.85;;;23.17;;
26335;SDS011;14047;50.936;4.654;2023-02-22T13:53:16;39.05;;;23.45;;
26335;SDS011;14047;50.936;4.654;2023-02-22T13:55:50;35.58;;;23.40;;
26335;SDS011;14047;50.936;4.654;2023-02-22T13:58:21;39.67;;;25.02;;
26335;SDS011;14047;50.936;4.654;2023-02-22T14:00:48;35.08;;;23.38;;
26335;SDS011;14047;50.936;4.654;2023-02-22T14:06:03;42.15;;;26.20;;
26335;SDS011;14047;50.936;4.654;2023-02-22T14:16:23;43.10;;;28.10;;
26335;SDS011;14047;50.936;4.654;2023-02-22T14:21:26;40.75;;;27.80;;
26335;SDS011;14047;50.936;4.654;2023-02-22T14:23:53;43.38;;;27.30;;
26335;SDS011;14047;50.936;4.654;2023-02-22T14:31:20;45.85;;;27.80;;
26335;SDS011;14047;50.936;4.654;2023-02-22T14:33:58;47.75;;;28.60;;
26335;SDS011;14047;50.936;4.654;2023-02-22T14:36:56;46.42;;;28.73;;
26335;SDS011;14047;50.936;4.654;2023-02-22T14:41:58;43.85;;;27.92;;
26335;SDS011;14047;50.936;4.654;2023-02-22T14:47:42;49.38;;;29.30;;
26335;SDS011;14047;50.936;4.654;2023-02-22T14:53:25;49.72;;;28.00;;
26335;SDS011;14047;50.936;4.654;2023-02-22T15:04:03;49.15;;;29.00;;
26335;SDS011;14047;50.936;4.654;2023-02-22T15:06:43;48.20;;;30.08;;
26335;SDS011;14047;50.936;4.654;2023-02-22T15:14:21;52.70;;;30.55;;
26335;SDS011;14047;50.936;4.654;2023-02-22T15:16:52;53.42;;;32.47;;
26335;SDS011;14047;50.936;4.654;2023-02-22T15:19:23;49.30;;;30.35;;
26335;SDS011;14047;50.936;4.654;2023-02-22T15:21:54;51.60;;;31.63;;
26335;SDS011;14047;50.936;4.654;2023-02-22T15:24:29;49.85;;;31.00;;
26335;SDS011;14047;50.936;4.654;2023-02-22T15:27:03;53.35;;;33.70;;
26335;SDS011;14047;50.936;4.654;2023-02-22T15:32:11;56.08;;;33.40;;
26335;SDS011;14047;50.936;4.654;2023-02-22T15:34:51;52.65;;;32.80;;
26335;SDS011;14047;50.936;4.654;2023-02-22T15:37:22;58.80;;;33.85;;
26335;SDS011;14047;50.936;4.654;2023-02-22T15:39:49;62.60;;;35.05;;
26335;SDS011;14047;50.936;4.654;2023-02-22T15:42:26;55.92;;;33.65;;
26335;SDS011;14047;50.936;4.654;2023-02-22T15:44:54;57.50;;;36.00;;
26335;SDS011;14047;50.936;4.654;2023-02-22T15:47:25;55.22;;;33.70;;
26335;SDS011;14047;50.936;4.654;2023-02-22T15:52:55;58.90;;;34.55;;
26335;SDS011;14047;50.936;4.654;2023-02-22T15:55:34;59.75;;;35.42;;
26335;SDS011;14047;50.936;4.654;2023-02-22T16:01:02;60.92;;;36.65;;
26335;SDS011;14047;50.936;4.654;2023-02-22T16:03:42;60.13;;;35.95;;
26335;SDS011;14047;50.936;4.654;2023-02-22T16:08:55;54.72;;;34.13;;
26335;SDS011;14047;50.936;4.654;2023-02-22T16:11:34;57.38;;;32.95;;
26335;SDS011;14047;50.936;4.654;2023-02-22T16:14:05;55.65;;;35.03;;
26335;SDS011;14047;50.936;4.654;2023-02-22T16:16:48;60.88;;;35.33;;
26335;SDS011;14047;50.936;4.654;2023-02-22T16:19:26;58.95;;;34.53;;
26335;SDS011;14047;50.936;4.654;2023-02-22T16:21:54;63.75;;;39.17;;
26335;SDS011;14047;50.936;4.654;2023-02-22T16:24:26;61.03;;;37.40;;
26335;SDS011;14047;50.936;4.654;2023-02-22T16:27:00;62.50;;;36.63;;
26335;SDS011;14047;50.936;4.654;2023-02-22T16:29:29;63.67;;;35.47;;
26335;SDS011;14047;50.936;4.654;2023-02-22T16:31:55;59.65;;;34.28;;
26335;SDS011;14047;50.936;4.654;2023-02-22T16:34:21;60.40;;;36.47;;
26335;SDS011;14047;50.936;4.654;2023-02-22T16:36:48;58.40;;;34.33;;
26335;SDS011;14047;50.936;4.654;2023-02-22T16:39:21;61.00;;;34.50;;
26335;SDS011;14047;50.936;4.654;2023-02-22T16:41:53;62.40;;;35.17;;
26335;SDS011;14047;50.936;4.654;2023-02-22T16:44:21;64.53;;;34.63;;
26335;SDS011;14047;50.936;4.654;2023-02-22T16:46:53;63.47;;;34.97;;
26335;SDS011;14047;50.936;4.654;2023-02-22T16:49:20;69.00;;;35.97;;
26335;SDS011;14047;50.936;4.654;2023-02-22T16:51:54;61.75;;;37.10;;
26335;SDS011;14047;50.936;4.654;2023-02-22T16:54:33;64.32;;;34.85;;
26335;SDS011;14047;50.936;4.654;2023-02-22T16:57:04;63.90;;;34.67;;
26335;SDS011;14047;50.936;4.654;2023-02-22T16:59:30;59.78;;;32.95;;
26335;SDS011;14047;50.936;4.654;2023-02-22T17:02:00;62.60;;;34.08;;
26335;SDS011;14047;50.936;4.654;2023-02-22T17:04:32;64.55;;;33.38;;
26335;SDS011;14047;50.936;4.654;2023-02-22T17:06:58;64.25;;;32.60;;
26335;SDS011;14047;50.936;4.654;2023-02-22T17:09:24;59.78;;;31.88;;
26335;SDS011;14047;50.936;4.654;2023-02-22T17:11:50;56.70;;;30.80;;
26335;SDS011;14047;50.936;4.654;2023-02-22T17:14:18;55.70;;;30.48;;
26335;SDS011;14047;50.936;4.654;2023-02-22T17:16:52;58.90;;;30.45;;
26335;SDS011;14047;50.936;4.654;2023-02-22T17:19:19;62.95;;;31.75;;
26335;SDS011;14047;50.936;4.654;2023-02-22T17:21:47;58.67;;;30.33;;
26335;SDS011;14047;50.936;4.654;2023-02-22T17:24:18;63.05;;;30.88;;
26335;SDS011;14047;50.936;4.654;2023-02-22T17:26:48;58.35;;;30.23;;
26335;SDS011;14047;50.936;4.654;2023-02-22T17:29:17;60.70;;;32.75;;
26335;SDS011;14047;50.936;4.654;2023-02-22T17:31:43;57.05;;;30.42;;
26335;SDS011;14047;50.936;4.654;2023-02-22T17:34:09;62.70;;;32.25;;
26335;SDS011;14047;50.936;4.654;2023-02-22T17:36:35;60.38;;;32.33;;
26335;SDS011;14047;50.936;4.654;2023-02-22T17:39:02;59.72;;;30.45;;
26335;SDS011;14047;50.936;4.654;2023-02-22T17:41:29;57.67;;;30.83;;
26335;SDS011;14047;50.936;4.654;2023-02-22T17:43:55;64.45;;;32.80;;
26335;SDS011;14047;50.936;4.654;2023-02-22T17:46:23;62.70;;;31.83;;
26335;SDS011;14047;50.936;4.654;2023-02-22T17:48:50;71.82;;;34.03;;
26335;SDS011;14047;50.936;4.654;2023-02-22T17:51:18;62.83;;;32.17;;
26335;SDS011;14047;50.936;4.654;2023-02-22T17:53:46;67.95;;;33.45;;
26335;SDS011;14047;50.936;4.654;2023-02-22T17:56:13;63.05;;;33.67;;
26335;SDS011;14047;50.936;4.654;2023-02-22T17:58:44;65.18;;;32.55;;
26335;SDS011;14047;50.936;4.654;2023-02-22T18:01:29;63.97;;;32.00;;